createdAt,value
2019-04-22T00:00:34.023Z,0.00
2019-04-22T00:01:31.257Z,0.00
2019-04-22T00:02:28.540Z,0.00
2019-04-22T00:03:36.038Z,0.00
2019-04-22T00:04:40.242Z,0.00
2019-04-22T00:05:53.244Z,0.00
2019-04-22T00:06:50.063Z,0.00
2019-04-22T00:07:50.923Z,0.00
2019-04-22T00:09:54.840Z,0.00
2019-04-22T00:10:56.146Z,0.00
2019-04-22T00:11:57.242Z,0.00
2019-04-22T00:12:57.760Z,0.00
2019-04-22T00:13:53.434Z,0.00
2019-04-22T00:14:48.400Z,0.00
2019-04-22T00:15:53.864Z,0.00
2019-04-22T00:16:51.779Z,0.00
2019-04-22T00:19:57.718Z,0.00
2019-04-22T00:20:54.453Z,0.00
2019-04-22T00:21:55.773Z,0.00
2019-04-22T00:22:51.888Z,0.00
2019-04-22T00:23:53.109Z,0.00
2019-04-22T00:24:51.219Z,0.00
2019-04-22T00:25:57.257Z,0.00
2019-04-22T00:26:59.974Z,0.00
2019-04-22T00:27:57.554Z,0.00
2019-04-22T00:30:54.794Z,0.00
2019-04-22T00:31:52.871Z,0.00
2019-04-22T00:32:53.672Z,0.00
2019-04-22T00:33:55.927Z,0.00
2019-04-22T00:34:48.763Z,0.00
2019-04-22T00:35:49.414Z,0.00
2019-04-22T00:36:48.283Z,0.00
2019-04-22T00:37:56.717Z,0.00
2019-04-22T00:38:52.680Z,0.00
2019-04-22T00:39:51.763Z,0.00
2019-04-22T00:40:50.703Z,0.00
2019-04-22T00:41:44.093Z,0.00
2019-04-22T00:42:55.390Z,0.00
2019-04-22T00:43:59.650Z,0.00
2019-04-22T00:44:55.869Z,0.00
2019-04-22T00:45:49.283Z,0.00
2019-04-22T00:46:54.433Z,0.00
2019-04-22T00:47:58.070Z,0.00
2019-04-22T00:49:33.167Z,0.00
2019-04-22T00:51:00.152Z,0.00
2019-04-22T00:51:56.875Z,0.00
2019-04-22T00:52:56.054Z,0.00
2019-04-22T00:53:48.846Z,0.00
2019-04-22T00:55:04.230Z,0.00
2019-04-22T00:55:55.319Z,0.00
2019-04-22T00:56:48.180Z,0.00
2019-04-22T00:57:54.243Z,0.00
2019-04-22T00:59:08.189Z,0.00
2019-04-22T00:59:54.896Z,0.00
2019-04-22T01:00:55.596Z,0.00
2019-04-22T01:01:52.540Z,0.00
2019-04-22T01:02:58.924Z,0.00
2019-04-22T01:03:58.371Z,0.00
2019-04-22T01:04:55.974Z,0.00
2019-04-22T01:05:59.703Z,0.00
2019-04-22T01:06:55.617Z,0.00
2019-04-22T01:07:49.573Z,0.00
2019-04-22T01:09:52.080Z,0.00
2019-04-22T01:10:52.727Z,0.00
2019-04-22T01:11:53.707Z,0.00
2019-04-22T01:12:50.066Z,0.00
2019-04-22T01:13:49.578Z,0.00
2019-04-22T01:14:53.801Z,0.00
2019-04-22T01:16:01.522Z,0.00
2019-04-22T01:16:56.492Z,0.00
2019-04-22T01:17:52.472Z,0.00
2019-04-22T01:18:52.258Z,0.00
2019-04-22T01:20:13.086Z,0.00
2019-04-22T01:21:52.290Z,0.00
2019-04-22T01:22:46.242Z,0.00
2019-04-22T01:23:47.632Z,0.00
2019-04-22T01:24:46.655Z,0.00
2019-04-22T01:25:46.145Z,0.00
2019-04-22T01:26:43.701Z,0.00
2019-04-22T01:27:43.381Z,0.00
2019-04-22T01:28:39.532Z,0.00
2019-04-22T01:29:39.750Z,0.00
2019-04-22T01:30:34.996Z,0.00
2019-04-22T01:31:31.465Z,0.00
2019-04-22T01:32:32.826Z,0.00
2019-04-22T01:33:35.350Z,0.00
2019-04-22T01:34:40.504Z,0.00
2019-04-22T01:35:41.148Z,0.00
2019-04-22T01:36:51.710Z,0.00
2019-04-22T01:37:45.665Z,0.00
2019-04-22T01:38:55.411Z,0.00
2019-04-22T01:39:50.475Z,0.00
2019-04-22T01:40:57.897Z,0.00
2019-04-22T01:41:59.782Z,0.00
2019-04-22T01:42:55.831Z,0.00
2019-04-22T01:44:00.693Z,0.00
2019-04-22T01:44:50.979Z,0.00
2019-04-22T01:45:53.223Z,0.00
2019-04-22T01:46:53.917Z,0.00
2019-04-22T01:47:49.153Z,0.00
2019-04-22T01:48:57.775Z,0.00
2019-04-22T01:49:55.512Z,0.00
2019-04-22T01:50:50.000Z,0.00
2019-04-22T01:51:59.823Z,0.00
2019-04-22T01:52:57.033Z,0.00
2019-04-22T01:53:57.681Z,0.00
2019-04-22T01:55:12.255Z,0.00
2019-04-22T01:55:55.415Z,0.00
2019-04-22T01:56:52.622Z,0.00
2019-04-22T01:57:47.734Z,0.00
2019-04-22T01:58:48.303Z,0.00
2019-04-22T01:59:48.771Z,0.00
2019-04-22T02:00:58.154Z,0.00
2019-04-22T02:02:53.231Z,0.00
2019-04-22T02:03:54.500Z,0.00
2019-04-22T02:04:55.147Z,0.00
2019-04-22T02:05:53.577Z,0.00
2019-04-22T02:07:51.556Z,0.00
2019-04-22T02:09:04.126Z,0.00
2019-04-22T02:09:49.575Z,0.00
2019-04-22T02:10:54.971Z,0.00
2019-04-22T02:11:53.397Z,0.00
2019-04-22T02:12:54.115Z,0.00
2019-04-22T02:13:43.094Z,0.00
2019-04-22T02:14:50.636Z,0.00
2019-04-22T02:15:53.807Z,0.00
2019-04-22T02:16:57.004Z,0.00
2019-04-22T02:17:57.922Z,0.00
2019-04-22T02:18:56.032Z,0.00
2019-04-22T02:20:48.556Z,0.00
2019-04-22T02:21:52.781Z,0.00
2019-04-22T02:23:17.599Z,0.00
2019-04-22T02:24:02.687Z,0.00
2019-04-22T02:24:53.809Z,0.00
2019-04-22T02:25:59.246Z,0.00
2019-04-22T02:26:48.218Z,0.00
2019-04-22T02:27:56.622Z,0.00
2019-04-22T02:28:56.454Z,0.00
2019-04-22T02:31:16.885Z,0.00
2019-04-22T02:31:59.408Z,0.00
2019-04-22T02:33:20.005Z,0.00
2019-04-22T02:34:09.336Z,0.00
2019-04-22T02:35:03.725Z,0.00
2019-04-22T02:37:12.487Z,0.00
2019-04-22T02:37:54.353Z,0.00
2019-04-22T02:39:57.292Z,0.00
2019-04-22T02:42:00.745Z,0.00
2019-04-22T02:43:01.727Z,0.00
2019-04-22T02:44:53.715Z,0.00
2019-04-22T02:46:13.425Z,0.00
2019-04-22T02:47:58.568Z,0.00
2019-04-22T02:49:08.560Z,0.00
2019-04-22T02:50:00.220Z,0.00
2019-04-22T02:51:02.152Z,0.00
2019-04-22T02:51:52.298Z,0.00
2019-04-22T02:52:50.223Z,0.00
2019-04-22T02:55:11.541Z,0.00
2019-04-22T02:56:02.108Z,0.00
2019-04-22T02:56:56.461Z,0.00
2019-04-22T02:58:12.570Z,0.00
2019-04-22T02:59:04.192Z,0.00
2019-04-22T03:00:08.710Z,0.00
2019-04-22T03:05:06.788Z,0.00
2019-04-22T03:06:07.898Z,0.00
2019-04-22T03:06:46.171Z,0.00
2019-04-22T03:08:01.609Z,0.00
2019-04-22T03:09:12.524Z,0.00
2019-04-22T03:11:15.190Z,0.00
2019-04-22T03:12:04.583Z,0.00
2019-04-22T03:12:53.947Z,0.00
2019-04-22T03:16:54.891Z,0.00
2019-04-22T03:20:02.702Z,0.00
2019-04-22T03:20:58.164Z,0.00
2019-04-22T03:21:54.845Z,0.00
2019-04-22T03:23:05.737Z,0.00
2019-04-22T03:24:05.987Z,0.00
2019-04-22T03:25:23.838Z,0.00
2019-04-22T03:26:13.383Z,0.00
2019-04-22T03:26:58.540Z,0.00
2019-04-22T03:28:10.258Z,0.00
2019-04-22T03:30:18.810Z,0.00
2019-04-22T03:34:39.136Z,0.00
2019-04-22T03:36:10.078Z,0.00
2019-04-22T03:37:50.526Z,0.00
2019-04-22T03:40:04.375Z,0.00
2019-04-22T03:42:05.843Z,0.00
2019-04-22T03:43:09.217Z,0.00
2019-04-22T03:44:10.840Z,0.00
2019-04-22T03:45:00.455Z,0.00
2019-04-22T03:45:58.703Z,0.00
2019-04-22T03:49:12.159Z,0.00
2019-04-22T03:51:04.046Z,0.00
2019-04-22T03:52:05.349Z,4.00
2019-04-22T03:53:06.274Z,4.00
2019-04-22T03:54:21.264Z,0.00
2019-04-22T03:55:09.185Z,4.00
2019-04-22T03:55:57.558Z,0.00
2019-04-22T03:57:51.954Z,4.00
2019-04-22T03:59:09.904Z,8.00
2019-04-22T03:59:57.301Z,8.00
2019-04-22T04:01:02.582Z,8.00
2019-04-22T04:04:18.678Z,16.00
2019-04-22T04:04:49.524Z,16.00
2019-04-22T04:06:20.825Z,20.00
2019-04-22T04:07:22.495Z,24.00
2019-04-22T04:08:58.941Z,32.00
2019-04-22T04:10:07.928Z,36.00
2019-04-22T04:11:06.426Z,44.00
2019-04-22T04:11:59.340Z,48.00
2019-04-22T04:13:08.411Z,56.00
2019-04-22T04:14:01.029Z,64.00
2019-04-22T04:15:12.273Z,72.00
2019-04-22T04:15:52.599Z,84.00
2019-04-22T04:17:11.466Z,92.00
2019-04-22T04:18:09.175Z,104.00
2019-04-22T04:19:13.919Z,116.00
2019-04-22T04:21:57.791Z,156.00
2019-04-22T04:25:56.489Z,224.00
2019-04-22T04:27:07.406Z,244.00
2019-04-22T04:28:24.567Z,264.00
2019-04-22T04:29:10.168Z,284.00
2019-04-22T04:31:09.948Z,324.00
2019-04-22T04:32:09.837Z,348.00
2019-04-22T04:32:57.222Z,372.00
2019-04-22T04:33:54.429Z,392.00
2019-04-22T04:35:54.525Z,440.00
2019-04-22T04:40:04.732Z,528.00
2019-04-22T04:40:58.568Z,544.00
2019-04-22T04:42:07.390Z,564.00
2019-04-22T04:43:10.026Z,584.00
2019-04-22T04:46:02.893Z,648.00
2019-04-22T04:46:58.445Z,672.00
2019-04-22T04:47:54.520Z,692.00
2019-04-22T04:50:02.649Z,744.00
2019-04-22T04:51:07.720Z,768.00
2019-04-22T04:52:03.944Z,796.00
2019-04-22T04:53:19.129Z,824.00
2019-04-22T04:54:04.161Z,848.00
2019-04-22T04:55:09.691Z,876.00
2019-04-22T04:55:59.851Z,900.00
2019-04-22T04:58:10.094Z,956.00
2019-04-22T04:59:06.349Z,980.00
2019-04-22T05:01:56.057Z,1048.00
2019-04-22T05:04:14.205Z,1096.00
2019-04-22T05:05:06.498Z,1116.00
2019-04-22T05:05:59.270Z,1136.00
2019-04-22T05:07:56.031Z,1164.00
2019-04-22T05:10:03.771Z,1188.00
2019-04-22T05:12:03.655Z,1204.00
2019-04-22T05:12:57.259Z,1212.00
2019-04-22T05:13:57.793Z,1216.00
2019-04-22T05:14:57.767Z,1220.00
2019-04-22T05:16:09.332Z,1228.00
2019-04-22T05:16:54.810Z,1232.00
2019-04-22T05:17:57.711Z,1240.00
2019-04-22T05:19:07.864Z,1252.00
2019-04-22T05:19:56.827Z,1256.00
2019-04-22T05:21:53.292Z,1276.00
2019-04-22T05:23:55.012Z,1288.00
2019-04-22T05:24:53.852Z,1292.00
2019-04-22T05:25:53.517Z,1292.00
2019-04-22T05:28:52.198Z,1288.00
2019-04-22T05:30:46.046Z,1276.00
2019-04-22T05:31:52.246Z,1300.00
2019-04-22T05:32:51.507Z,1328.00
2019-04-22T05:33:54.536Z,1352.00
2019-04-22T05:34:48.613Z,1392.00
2019-04-22T05:35:49.299Z,1436.00
2019-04-22T05:37:01.159Z,1460.00
2019-04-22T05:38:58.212Z,1500.00
2019-04-22T05:39:49.649Z,1520.00
2019-04-22T05:40:50.088Z,1536.00
2019-04-22T05:41:48.834Z,1556.00
2019-04-22T05:42:51.275Z,1568.00
2019-04-22T05:43:50.302Z,1580.00
2019-04-22T05:44:49.683Z,1592.00
2019-04-22T05:45:54.798Z,1604.00
2019-04-22T05:46:49.793Z,1620.00
2019-04-22T05:47:55.109Z,1628.00
2019-04-22T05:48:54.105Z,1640.00
2019-04-22T05:49:48.560Z,1652.00
2019-04-22T05:50:50.412Z,1672.00
2019-04-22T05:51:48.098Z,1680.00
2019-04-22T05:52:47.105Z,1692.00
2019-04-22T05:53:47.562Z,1700.00
2019-04-22T05:54:48.707Z,1708.00
2019-04-22T05:55:47.902Z,1712.00
2019-04-22T05:57:00.817Z,1716.00
2019-04-22T05:57:51.013Z,1720.00
2019-04-22T05:58:52.817Z,1716.00
2019-04-22T05:59:57.369Z,1716.00
2019-04-22T06:01:12.743Z,1720.00
2019-04-22T06:02:13.571Z,1724.00
2019-04-22T06:02:53.484Z,1728.00
2019-04-22T06:03:52.862Z,1732.00
2019-04-22T06:04:54.983Z,1744.00
2019-04-22T06:05:47.255Z,1752.00
2019-04-22T06:06:51.799Z,1760.00
2019-04-22T06:07:47.198Z,1764.00
2019-04-22T06:08:50.689Z,1776.00
2019-04-22T06:09:49.882Z,1796.00
2019-04-22T06:10:54.084Z,1832.00
2019-04-22T06:11:36.303Z,1852.00
2019-04-22T06:12:43.022Z,1872.00
2019-04-22T06:13:45.330Z,1892.00
2019-04-22T06:14:48.176Z,1904.00
2019-04-22T06:15:50.055Z,1924.00
2019-04-22T06:16:54.004Z,1944.00
2019-04-22T06:17:54.785Z,1968.00
2019-04-22T06:18:48.983Z,1984.00
2019-04-22T06:19:50.516Z,2008.00
2019-04-22T06:20:53.466Z,2036.00
2019-04-22T06:22:06.873Z,2056.00
2019-04-22T06:22:50.349Z,2080.00
2019-04-22T06:23:56.583Z,2088.00
2019-04-22T06:24:53.879Z,2104.00
2019-04-22T06:27:01.523Z,2124.00
2019-04-22T06:27:53.900Z,2100.00
2019-04-22T06:28:51.892Z,2092.00
2019-04-22T06:29:46.410Z,2148.00
2019-04-22T06:30:53.494Z,2160.00
2019-04-22T06:32:11.701Z,2160.00
2019-04-22T06:32:47.284Z,2160.00
2019-04-22T06:33:48.534Z,2160.00
2019-04-22T06:34:48.748Z,2160.00
2019-04-22T06:35:54.606Z,2160.00
2019-04-22T06:36:57.004Z,2160.00
2019-04-22T06:38:09.711Z,2152.00
2019-04-22T06:38:46.665Z,2156.00
2019-04-22T06:39:46.650Z,2156.00
2019-04-22T06:40:56.766Z,2160.00
2019-04-22T06:41:51.651Z,2172.00
2019-04-22T06:42:52.574Z,2184.00
2019-04-22T06:43:56.183Z,2192.00
2019-04-22T06:44:52.669Z,2212.00
2019-04-22T06:45:43.834Z,2228.00
2019-04-22T06:47:10.560Z,2244.00
2019-04-22T06:48:50.877Z,2288.00
2019-04-22T06:49:52.699Z,2308.00
2019-04-22T06:50:48.874Z,2332.00
2019-04-22T06:51:55.796Z,2360.00
2019-04-22T06:52:52.292Z,2380.00
2019-04-22T06:53:51.918Z,2408.00
2019-04-22T06:54:48.896Z,2432.00
2019-04-22T06:55:45.880Z,2460.00
2019-04-22T06:56:50.665Z,2496.00
2019-04-22T06:57:45.256Z,2524.00
2019-04-22T06:58:45.777Z,2556.00
2019-04-22T06:59:53.552Z,2588.00
2019-04-22T07:00:44.674Z,2612.00
2019-04-22T07:01:48.618Z,2640.00
2019-04-22T07:03:17.223Z,2672.00
2019-04-22T07:04:49.338Z,2728.00
2019-04-22T07:05:46.365Z,2776.00
2019-04-22T07:07:45.376Z,2836.00
2019-04-22T07:09:48.534Z,2892.00
2019-04-22T07:10:48.021Z,2940.00
2019-04-22T07:11:43.316Z,2960.00
2019-04-22T07:12:49.279Z,2988.00
2019-04-22T07:13:50.309Z,3000.00
2019-04-22T07:14:48.811Z,3032.00
2019-04-22T07:15:55.200Z,3040.00
2019-04-22T07:16:54.243Z,3076.00
2019-04-22T07:17:50.892Z,3092.00
2019-04-22T07:18:48.469Z,3116.00
2019-04-22T07:19:45.176Z,3136.00
2019-04-22T07:20:51.219Z,3156.00
2019-04-22T07:21:57.498Z,3188.00
2019-04-22T07:22:45.400Z,3224.00
2019-04-22T07:23:51.353Z,3244.00
2019-04-22T07:25:47.571Z,3280.00
2019-04-22T07:26:45.121Z,3312.00
2019-04-22T07:27:47.353Z,3332.00
2019-04-22T07:28:46.651Z,3348.00
2019-04-22T07:29:55.353Z,3364.00
2019-04-22T07:30:44.828Z,3388.00
2019-04-22T07:31:49.607Z,3404.00
2019-04-22T07:33:04.226Z,3420.00
2019-04-22T07:33:58.360Z,3444.00
2019-04-22T07:36:00.595Z,3460.00
2019-04-22T07:36:54.852Z,3460.00
2019-04-22T07:38:05.910Z,3472.00
2019-04-22T07:38:45.564Z,3468.00
2019-04-22T07:39:45.830Z,3488.00
2019-04-22T07:41:48.874Z,3548.00
2019-04-22T07:42:52.113Z,3556.00
2019-04-22T07:44:10.229Z,3540.00
2019-04-22T07:44:51.198Z,3556.00
2019-04-22T07:45:48.929Z,3576.00
2019-04-22T07:47:52.139Z,3592.00
2019-04-22T07:51:44.604Z,3608.00
2019-04-22T07:52:45.615Z,3632.00
2019-04-22T07:53:48.947Z,3640.00
2019-04-22T07:54:46.883Z,3644.00
2019-04-22T07:55:47.286Z,3652.00
2019-04-22T07:56:50.734Z,3644.00
2019-04-22T07:57:47.646Z,3648.00
2019-04-22T07:58:48.896Z,3648.00
2019-04-22T07:59:52.400Z,3644.00
2019-04-22T08:00:44.904Z,3612.00
2019-04-22T08:01:41.857Z,3604.00
2019-04-22T08:02:51.697Z,3612.00
2019-04-22T08:04:15.254Z,3612.00
2019-04-22T08:04:58.005Z,3656.00
2019-04-22T08:05:58.582Z,3672.00
2019-04-22T08:06:52.816Z,3688.00
2019-04-22T08:07:52.442Z,3700.00
2019-04-22T08:08:45.474Z,3696.00
2019-04-22T08:09:53.917Z,3708.00
2019-04-22T08:10:49.983Z,3720.00
2019-04-22T08:11:49.953Z,3732.00
2019-04-22T08:13:49.858Z,3772.00
2019-04-22T08:14:45.953Z,3796.00
2019-04-22T08:16:51.298Z,3844.00
2019-04-22T08:18:00.263Z,3876.00
2019-04-22T08:18:45.683Z,3900.00
2019-04-22T08:19:48.454Z,3904.00
2019-04-22T08:20:47.187Z,3888.00
2019-04-22T08:21:52.097Z,3912.00
2019-04-22T08:22:51.147Z,3928.00
2019-04-22T08:23:50.995Z,3928.00
2019-04-22T08:24:51.424Z,3940.00
2019-04-22T08:25:49.520Z,3932.00
2019-04-22T08:26:46.037Z,3920.00
2019-04-22T08:27:50.454Z,3916.00
2019-04-22T08:29:53.889Z,3892.00
2019-04-22T08:30:48.954Z,3880.00
2019-04-22T08:31:48.674Z,3872.00
2019-04-22T08:32:46.112Z,3864.00
2019-04-22T08:33:46.602Z,3856.00
2019-04-22T08:34:42.787Z,3852.00
2019-04-22T08:36:00.880Z,3832.00
2019-04-22T08:37:52.571Z,3800.00
2019-04-22T08:38:52.819Z,3784.00
2019-04-22T08:40:07.728Z,3764.00
2019-04-22T08:40:53.361Z,3764.00
2019-04-22T08:44:01.198Z,3764.00
2019-04-22T08:45:08.124Z,3764.00
2019-04-22T08:45:56.915Z,3768.00
2019-04-22T08:46:48.978Z,3752.00
2019-04-22T08:48:01.637Z,3748.00
2019-04-22T08:49:58.353Z,3744.00
2019-04-22T08:50:47.050Z,3792.00
2019-04-22T08:51:43.843Z,3796.00
2019-04-22T08:52:54.399Z,3784.00
2019-04-22T08:53:57.248Z,3760.00
2019-04-22T08:54:55.382Z,3736.00
2019-04-22T08:55:56.734Z,3712.00
2019-04-22T08:56:45.031Z,3728.00
2019-04-22T08:58:50.779Z,3724.00
2019-04-22T08:59:48.972Z,3712.00
2019-04-22T09:00:49.932Z,3696.00
2019-04-22T09:01:46.943Z,3700.00
2019-04-22T09:02:46.642Z,3684.00
2019-04-22T09:03:46.903Z,3696.00
2019-04-22T09:04:45.037Z,3704.00
2019-04-22T09:06:01.966Z,3716.00
2019-04-22T09:07:46.977Z,3752.00
2019-04-22T09:08:50.478Z,3764.00
2019-04-22T09:09:44.568Z,3772.00
2019-04-22T09:10:49.663Z,3768.00
2019-04-22T09:11:53.241Z,3764.00
2019-04-22T09:12:56.861Z,3740.00
2019-04-22T09:13:50.421Z,3752.00
2019-04-22T09:14:47.635Z,3772.00
2019-04-22T09:15:50.962Z,3840.00
2019-04-22T09:16:49.793Z,3884.00
2019-04-22T09:17:47.798Z,3920.00
2019-04-22T09:18:48.233Z,3972.00
2019-04-22T09:19:48.148Z,4048.00
2019-04-22T09:20:49.319Z,4108.00
2019-04-22T09:21:54.541Z,4164.00
2019-04-22T09:22:47.243Z,4204.00
2019-04-22T09:23:54.044Z,4260.00
2019-04-22T09:24:50.341Z,4324.00
2019-04-22T09:25:48.465Z,4372.00
2019-04-22T09:26:48.704Z,4440.00
2019-04-22T09:28:54.536Z,4564.00
2019-04-22T09:29:42.854Z,4584.00
2019-04-22T09:30:50.259Z,4648.00
2019-04-22T09:31:56.668Z,4712.00
2019-04-22T09:32:56.242Z,4788.00
2019-04-22T09:33:43.241Z,4848.00
2019-04-22T09:34:46.979Z,4916.00
2019-04-22T09:35:52.468Z,4988.00
2019-04-22T09:36:55.454Z,5060.00
2019-04-22T09:37:48.301Z,5096.00
2019-04-22T09:39:51.985Z,5244.00
2019-04-22T09:40:46.940Z,5312.00
2019-04-22T09:41:48.375Z,5388.00
2019-04-22T09:42:53.292Z,5440.00
2019-04-22T09:44:47.795Z,5564.00
2019-04-22T09:45:48.019Z,5624.00
2019-04-22T09:46:47.280Z,5620.00
2019-04-22T09:47:53.761Z,5684.00
2019-04-22T09:48:55.741Z,5676.00
2019-04-22T09:49:53.187Z,5684.00
2019-04-22T09:50:48.146Z,5704.00
2019-04-22T09:51:44.900Z,5700.00
2019-04-22T09:52:48.965Z,5760.00
2019-04-22T09:53:54.766Z,5660.00
2019-04-22T09:54:57.020Z,5724.00
2019-04-22T09:55:43.103Z,5704.00
2019-04-22T09:57:48.264Z,5884.00
2019-04-22T09:58:53.658Z,5884.00
2019-04-22T09:59:51.176Z,6000.00
2019-04-22T10:00:59.781Z,6120.00
2019-04-22T10:02:02.365Z,6080.00
2019-04-22T10:02:47.590Z,6176.00
2019-04-22T10:03:51.643Z,6336.00
2019-04-22T10:04:50.113Z,6384.00
2019-04-22T10:05:54.105Z,6384.00
2019-04-22T10:06:41.174Z,6364.00
2019-04-22T10:07:50.234Z,6416.00
2019-04-22T10:10:48.944Z,6680.00
2019-04-22T10:11:45.491Z,6748.00
2019-04-22T10:13:49.291Z,6816.00
2019-04-22T10:15:49.745Z,6812.00
2019-04-22T10:17:44.421Z,6652.00
2019-04-22T10:18:49.018Z,6740.00
2019-04-22T10:19:46.803Z,6744.00
2019-04-22T10:20:51.841Z,6796.00
2019-04-22T10:21:57.250Z,6756.00
2019-04-22T10:22:46.100Z,6748.00
2019-04-22T10:23:44.383Z,6828.00
2019-04-22T10:24:44.699Z,6924.00
2019-04-22T10:25:50.878Z,6992.00
2019-04-22T10:26:46.895Z,6972.00
2019-04-22T10:27:47.740Z,7064.00
2019-04-22T10:28:56.133Z,7072.00
2019-04-22T10:29:59.831Z,7248.00
2019-04-22T10:30:48.820Z,7300.00
2019-04-22T10:31:43.698Z,7276.00
2019-04-22T10:32:43.012Z,7264.00
2019-04-22T10:33:38.151Z,7268.00
2019-04-22T10:34:34.050Z,7272.00
2019-04-22T10:35:23.621Z,7272.00
2019-04-22T10:36:21.461Z,7252.00
2019-04-22T10:37:23.405Z,7304.00
2019-04-22T10:38:19.310Z,7360.00
2019-04-22T10:39:20.312Z,7388.00
2019-04-22T10:40:19.638Z,7388.00
2019-04-22T10:41:20.571Z,7412.00
2019-04-22T10:42:19.268Z,7432.00
2019-04-22T10:43:19.269Z,7468.00
2019-04-22T10:44:19.315Z,7508.00
2019-04-22T10:45:19.239Z,7556.00
2019-04-22T10:46:19.956Z,7596.00
2019-04-22T10:47:20.081Z,7668.00
2019-04-22T10:48:19.205Z,7716.00
2019-04-22T10:49:20.307Z,7700.00
2019-04-22T10:50:20.514Z,7776.00
2019-04-22T10:51:19.181Z,7776.00
2019-04-22T10:52:19.162Z,7968.00
2019-04-22T10:53:19.768Z,8100.00
2019-04-22T10:54:19.772Z,8208.00
2019-04-22T10:55:19.308Z,8312.00
2019-04-22T10:56:19.119Z,8420.00
2019-04-22T10:57:20.127Z,8540.00
2019-04-22T10:58:20.532Z,8648.00
2019-04-22T10:59:20.490Z,8764.00
2019-04-22T11:00:19.773Z,8876.00
2019-04-22T11:01:19.070Z,9004.00
2019-04-22T11:02:19.269Z,9136.00
2019-04-22T11:03:20.267Z,9260.00
2019-04-22T11:04:19.468Z,9400.00
2019-04-22T11:05:19.957Z,9540.00
2019-04-22T11:06:19.220Z,9660.00
2019-04-22T11:07:24.582Z,9812.00
2019-04-22T11:08:29.751Z,9912.00
2019-04-22T11:09:22.088Z,10060.00
2019-04-22T11:10:35.316Z,10240.00
2019-04-22T11:11:32.520Z,10476.00
2019-04-22T11:12:23.374Z,10696.00
2019-04-22T11:13:20.216Z,10964.00
2019-04-22T11:14:19.115Z,11124.00
2019-04-22T11:15:18.954Z,11360.00
2019-04-22T11:16:19.371Z,11640.00
2019-04-22T11:17:19.544Z,11920.00
2019-04-22T11:18:19.828Z,12196.00
2019-04-22T11:19:19.438Z,12456.00
2019-04-22T11:20:19.870Z,12700.00
2019-04-22T11:21:19.942Z,12960.00
2019-04-22T11:22:24.526Z,13184.00
2019-04-22T11:23:20.574Z,13416.00
2019-04-22T11:24:18.912Z,13700.00
2019-04-22T11:25:18.824Z,13932.00
2019-04-22T11:26:19.872Z,14140.00
2019-04-22T11:27:18.929Z,14436.00
2019-04-22T11:28:19.939Z,14744.00
2019-04-22T11:29:19.575Z,14996.00
2019-04-22T11:30:22.281Z,15228.00
2019-04-22T11:31:20.715Z,15452.00
2019-04-22T11:32:20.157Z,16032.00
2019-04-22T11:33:18.734Z,16416.00
2019-04-22T11:34:19.367Z,16800.00
2019-04-22T11:35:19.523Z,17056.00
2019-04-22T11:36:19.938Z,17248.00
2019-04-22T11:37:18.689Z,17120.00
2019-04-22T11:38:19.052Z,16992.00
2019-04-22T11:39:19.718Z,17120.00
2019-04-22T11:40:26.447Z,17408.00
2019-04-22T11:41:19.647Z,18048.00
2019-04-22T11:42:18.638Z,18208.00
2019-04-22T11:43:19.881Z,18432.00
2019-04-22T11:44:19.155Z,16928.00
2019-04-22T11:45:19.369Z,17024.00
2019-04-22T11:46:18.596Z,17280.00
2019-04-22T11:47:19.250Z,17408.00
2019-04-22T11:48:19.528Z,17088.00
2019-04-22T11:49:18.566Z,17248.00
2019-04-22T11:50:19.576Z,16992.00
2019-04-22T11:51:19.908Z,17216.00
2019-04-22T11:52:19.134Z,17440.00
2019-04-22T11:53:18.700Z,17472.00
2019-04-22T11:54:18.888Z,17184.00
2019-04-22T11:55:19.146Z,17408.00
2019-04-22T11:56:18.865Z,17216.00
2019-04-22T11:57:19.141Z,17472.00
2019-04-22T11:58:18.969Z,18048.00
2019-04-22T11:59:18.686Z,18336.00
2019-04-22T12:00:18.790Z,18912.00
2019-04-22T12:01:19.200Z,18592.00
2019-04-22T12:02:20.062Z,18432.00
2019-04-22T12:03:18.794Z,17760.00
2019-04-22T12:04:18.408Z,17568.00
2019-04-22T12:05:19.618Z,17472.00
2019-04-22T12:06:19.752Z,17408.00
2019-04-22T12:07:19.064Z,16960.00
2019-04-22T12:08:18.368Z,16480.00
2019-04-22T12:09:19.508Z,16736.00
2019-04-22T12:10:29.869Z,16736.00
2019-04-22T12:11:20.658Z,16672.00
2019-04-22T12:12:18.329Z,17376.00
2019-04-22T12:13:19.833Z,17984.00
2019-04-22T12:14:18.307Z,18368.00
2019-04-22T12:15:19.079Z,18560.00
2019-04-22T12:16:19.170Z,18464.00
2019-04-22T12:17:18.292Z,18752.00
2019-04-22T12:18:19.558Z,18912.00
2019-04-22T12:19:18.950Z,19040.00
2019-04-22T12:20:19.780Z,18656.00
2019-04-22T12:21:19.389Z,19360.00
2019-04-22T12:22:18.224Z,18048.00
2019-04-22T12:23:18.965Z,17632.00
2019-04-22T12:24:19.289Z,17856.00
2019-04-22T12:25:32.001Z,17728.00
2019-04-22T12:26:21.001Z,17600.00
2019-04-22T12:27:19.120Z,17728.00
2019-04-22T12:28:19.115Z,19904.00
2019-04-22T12:29:18.150Z,22240.00
2019-04-22T12:30:19.464Z,24384.00
2019-04-22T12:31:19.299Z,26272.00
2019-04-22T12:32:18.123Z,30432.00
2019-04-22T12:33:19.185Z,31680.00
2019-04-22T12:34:19.466Z,28448.00
2019-04-22T12:35:18.119Z,30048.00
2019-04-22T12:36:18.353Z,28224.00
2019-04-22T12:37:24.824Z,24416.00
2019-04-22T12:38:20.225Z,20000.00
2019-04-22T12:39:18.052Z,19200.00
2019-04-22T12:40:30.177Z,19136.00
2019-04-22T12:41:19.734Z,18944.00
2019-04-22T12:42:19.489Z,19392.00
2019-04-22T12:43:20.238Z,32576.00
2019-04-22T12:44:18.145Z,65312.00
2019-04-22T12:45:18.402Z,91232.00
2019-04-22T12:46:18.516Z,106048.00
2019-04-22T12:47:17.966Z,111936.00
2019-04-22T12:48:19.091Z,116128.00
2019-04-22T12:49:18.208Z,129504.00
2019-04-22T12:50:24.354Z,138528.00
2019-04-22T12:51:18.977Z,136160.00
2019-04-22T12:52:26.638Z,131712.00
2019-04-22T12:53:22.563Z,125664.00
2019-04-22T12:54:19.340Z,130368.00
2019-04-22T12:55:17.888Z,111680.00
2019-04-22T12:56:19.381Z,129568.00
2019-04-22T12:57:18.816Z,122464.00
2019-04-22T12:58:18.158Z,131680.00
2019-04-22T12:59:19.255Z,126080.00
2019-04-22T13:00:17.844Z,133248.00
2019-04-22T13:01:19.084Z,126112.00
2019-04-22T13:02:18.788Z,134720.00
2019-04-22T13:03:18.144Z,123456.00
2019-04-22T13:04:19.920Z,124512.00
2019-04-22T13:05:19.782Z,127168.00
2019-04-22T13:06:17.794Z,131520.00
2019-04-22T13:07:17.790Z,130368.00
2019-04-22T13:08:18.101Z,131936.00
2019-04-22T13:09:19.502Z,134880.00
2019-04-22T13:10:17.821Z,129248.00
2019-04-22T13:11:22.026Z,129824.00
2019-04-22T13:12:19.334Z,121600.00
2019-04-22T13:13:18.914Z,125312.00
2019-04-22T13:14:19.187Z,118496.00
2019-04-22T13:15:18.221Z,123392.00
2019-04-22T13:16:17.717Z,113952.00
2019-04-22T13:17:18.952Z,114368.00
2019-04-22T13:18:28.795Z,103936.00
2019-04-22T13:19:20.956Z,96768.00
2019-04-22T13:20:20.079Z,89984.00
2019-04-22T13:21:18.591Z,107552.00
2019-04-22T13:22:19.052Z,85600.00
2019-04-22T13:23:18.112Z,89920.00
2019-04-22T13:24:19.879Z,81376.00
2019-04-22T13:25:17.750Z,83072.00
2019-04-22T13:26:18.995Z,84416.00
2019-04-22T13:27:19.245Z,81568.00
2019-04-22T13:28:19.113Z,69920.00
2019-04-22T13:29:19.130Z,61696.00
2019-04-22T13:30:18.628Z,50272.00
2019-04-22T13:31:20.453Z,44768.00
2019-04-22T13:32:18.636Z,41056.00
2019-04-22T13:33:19.032Z,47744.00
2019-04-22T13:34:26.248Z,44608.00
2019-04-22T13:35:20.240Z,44352.00
2019-04-22T13:36:21.793Z,43232.00
2019-04-22T13:37:19.136Z,45056.00
2019-04-22T13:38:17.543Z,48736.00
2019-04-22T13:39:18.814Z,48192.00
2019-04-22T13:40:19.037Z,35776.00
2019-04-22T13:41:30.490Z,27520.00
2019-04-22T13:42:21.509Z,23200.00
2019-04-22T13:43:18.782Z,19264.00
2019-04-22T13:44:18.850Z,17856.00
2019-04-22T13:45:17.912Z,17216.00
2019-04-22T13:46:17.486Z,17408.00
2019-04-22T13:47:34.766Z,18144.00
2019-04-22T13:48:38.734Z,22720.00
2019-04-22T13:49:56.596Z,27872.00
2019-04-22T13:50:49.960Z,31392.00
2019-04-22T13:51:52.568Z,34720.00
2019-04-22T13:53:00.669Z,49152.00
2019-04-22T13:54:16.127Z,43072.00
2019-04-22T13:54:50.403Z,37600.00
2019-04-22T13:55:59.178Z,46112.00
2019-04-22T13:56:38.301Z,45792.00
2019-04-22T13:57:38.200Z,44032.00
2019-04-22T13:58:34.298Z,41216.00